Death Valley, California
Current Conditions -  °F | °C
As of 9:52 PM on Saturday 25 Oct 2014 (Local Time) from KDRA Reporting Station
Clear Clear  
Wind Chill: 71°   Ceiling: Unl
Heat Index: 71°   Visibility: 10mi
Dew Point: 38°   Wind: 16mph
Humidity: 30%   Direction: 220°SW
Pressure: 29.98"   Gusts: 26mph
Location:  36.46°N, 116.87°W
Report Text: KDRA 260452Z AUTO 22014G23KT 10SM CLR 22/03 A2998 RMK AO2 SLP110 T02170033
Loading
Personal Weather Stations






























Interactive Weather Map
Tropical Storm Tracking
New forecast layout! Learn more

10-Day Weather Forecast

Advertisements
Track Severe Weather on mobile